Time;durP1;ratioP1;P1;durP2;ratioP2;P2;SDS_P1;SDS_P2;PMS_P1;PMS_P2;Temp;Humidity;BMP_temperature;BMP_pressure;BME280_temperature;BME280_humidity;BME280_pressure;Samples;Min_cycle;Max_cycle;Signal;HPM_P1;HPM_P2
2022/12/06 00:01:52;;;;;;;13.30;4.65;;;4.80;99.90;;;;;;5002486;28;20042;-59
2022/12/06 00:04:17;;;;;;;11.18;5.00;;;4.70;99.90;;;;;;4997542;28;20049;-60
2022/12/06 00:06:47;;;;;;;11.02;4.43;;;5.00;99.90;;;;;;4990659;28;20077;-59
2022/12/06 00:09:19;;;;;;;13.68;4.28;;;4.60;99.90;;;;;;4982453;28;20046;-59
2022/12/06 00:11:44;;;;;;;10.23;4.20;;;4.80;99.90;;;;;;4980909;28;20042;-59
2022/12/06 00:14:11;;;;;;;12.82;3.78;;;4.90;99.90;;;;;;4982013;28;20500;-59
2022/12/06 00:16:37;;;;;;;10.75;3.33;;;4.90;99.90;;;;;;4940347;28;1224689;-59
2022/12/06 00:19:03;;;;;;;10.05;4.13;;;4.60;99.90;;;;;;4983264;28;20062;-59
2022/12/06 00:21:31;;;;;;;14.45;3.88;;;4.50;99.90;;;;;;4982097;28;20100;-61
2022/12/06 00:24:03;;;;;;;7.93;3.53;;;4.70;99.90;;;;;;4998637;28;20043;-59
2022/12/06 00:26:29;;;;;;;7.75;3.55;;;4.60;99.90;;;;;;4983303;28;20501;-59
2022/12/06 00:28:58;;;;;;;13.63;3.90;;;4.60;99.90;;;;;;4983645;28;20116;-58
2022/12/06 00:31:25;;;;;;;11.80;3.70;;;4.70;99.90;;;;;;4983671;28;20038;-59
2022/12/06 00:33:51;;;;;;;10.77;3.55;;;4.90;99.90;;;;;;4981396;28;20057;-60
2022/12/06 00:36:19;;;;;;;11.48;4.40;;;4.60;99.90;;;;;;4982764;28;20141;-59
2022/12/06 00:38:45;;;;;;;9.63;3.70;;;4.60;99.90;;;;;;4982497;28;20053;-59
2022/12/06 00:41:17;;;;;;;11.95;4.03;;;4.60;99.90;;;;;;4983038;28;20042;-59
2022/12/06 00:43:43;;;;;;;8.13;3.75;;;4.50;99.90;;;;;;4982630;28;20053;-59
2022/12/06 00:46:14;;;;;;;10.43;3.90;;;4.70;99.90;;;;;;4982230;28;20142;-59
2022/12/06 00:48:40;;;;;;;9.93;3.75;;;4.80;99.90;;;;;;4983060;28;20054;-59
2022/12/06 00:51:05;;;;;;;9.90;3.70;;;4.90;99.90;;;;;;4982131;28;20046;-59
2022/12/06 00:53:31;;;;;;;11.68;3.92;;;4.50;99.90;;;;;;4983231;28;20046;-61
2022/12/06 00:55:57;;;;;;;12.02;3.63;;;4.80;99.90;;;;;;4982316;28;20141;-58
2022/12/06 00:58:23;;;;;;;11.73;3.90;;;4.70;99.90;;;;;;4983162;28;20047;-59
2022/12/06 01:00:50;;;;;;;8.32;3.80;;;4.50;99.90;;;;;;4999802;28;20042;-59
2022/12/06 01:03:15;;;;;;;9.88;3.40;;;4.60;99.90;;;;;;5002572;28;20124;-60
2022/12/06 01:05:50;;;;;;;13.00;3.83;;;4.90;99.90;;;;;;4994516;28;20124;-60
2022/12/06 01:08:17;;;;;;;7.25;3.17;;;4.80;99.90;;;;;;4982682;28;20038;-59
2022/12/06 01:10:52;;;;;;;7.03;3.38;;;4.50;99.90;;;;;;4982175;28;20038;-59
2022/12/06 01:13:17;;;;;;;9.98;3.25;;;4.90;99.90;;;;;;4982436;28;20057;-59
2022/12/06 01:15:43;;;;;;;11.48;3.75;;;4.50;99.90;;;;;;4983110;28;20038;-59
2022/12/06 01:18:09;;;;;;;7.80;3.90;;;4.90;99.90;;;;;;4982216;28;20065;-58
2022/12/06 01:20:34;;;;;;;10.30;3.58;;;5.70;99.90;;;;;;4983286;28;20474;-57
2022/12/06 01:23:00;;;;;;;9.90;3.50;;;5.00;99.90;;;;;;4986089;28;20046;-59
2022/12/06 01:25:26;;;;;;;9.23;3.83;;;4.70;99.90;;;;;;4987224;28;20505;-59
2022/12/06 01:27:51;;;;;;;8.65;3.60;;;4.80;99.90;;;;;;4986536;28;20133;-59
2022/12/06 01:30:17;;;;;;;10.32;3.47;;;5.10;99.90;;;;;;4985756;28;20505;-59
2022/12/06 01:32:42;;;;;;;6.55;3.65;;;4.90;99.90;;;;;;4986772;28;20046;-59
2022/12/06 01:35:08;;;;;;;7.95;3.58;;;4.60;99.90;;;;;;4986070;28;20046;-59
2022/12/06 01:37:34;;;;;;;11.10;3.70;;;4.90;99.90;;;;;;4984125;28;20583;-60
2022/12/06 01:39:59;;;;;;;11.18;3.20;;;4.90;99.90;;;;;;4986284;28;20058;-58
2022/12/06 01:42:25;;;;;;;7.82;3.20;;;4.90;99.90;;;;;;4986843;28;20069;-59
2022/12/06 01:44:54;;;;;;;11.60;4.20;;;4.70;99.90;;;;;;4985818;28;20488;-59
2022/12/06 01:47:22;;;;;;;9.32;3.05;;;4.60;99.90;;;;;;4985152;28;20050;-59
2022/12/06 01:50:09;;;;;;;7.25;3.13;;;5.20;99.90;;;;;;4986323;28;20081;-59
2022/12/06 01:52:42;;;;;;;7.13;2.72;;;4.80;99.90;;;;;;4985084;28;20065;-61
2022/12/06 01:55:09;;;;;;;8.57;3.15;;;4.70;99.90;;;;;;4985563;28;20121;-59
2022/12/06 01:57:35;;;;;;;7.07;2.50;;;4.80;99.90;;;;;;4986345;28;20492;-59
2022/12/06 02:00:01;;;;;;;8.15;2.70;;;4.70;99.90;;;;;;4986158;28;20058;-59
2022/12/06 02:02:27;;;;;;;7.00;2.38;;;4.70;99.90;;;;;;4983453;28;20050;-58
2022/12/06 02:04:53;;;;;;;6.93;2.03;;;4.50;99.90;;;;;;4991141;28;20259;-58
2022/12/06 02:07:21;;;;;;;7.30;2.50;;;4.80;99.90;;;;;;4990574;28;20261;-58
2022/12/06 02:09:50;;;;;;;6.05;2.60;;;4.40;99.90;;;;;;4983620;28;20047;-59
2022/12/06 02:12:15;;;;;;;7.95;2.60;;;4.50;99.90;;;;;;4986048;28;20057;-59
2022/12/06 02:14:44;;;;;;;8.50;2.50;;;4.70;99.90;;;;;;4985505;28;20046;-59
2022/12/06 02:17:16;;;;;;;5.53;2.40;;;4.50;99.90;;;;;;4985187;28;20077;-58
2022/12/06 02:19:52;;;;;;;6.15;2.47;;;4.80;99.90;;;;;;4984901;28;20061;-59
2022/12/06 02:22:24;;;;;;;4.18;2.50;;;4.60;99.90;;;;;;4984929;28;20104;-58
2022/12/06 02:25:27;;;;;;;3.72;2.03;;;4.40;99.90;;;;;;4984589;28;20163;-59
2022/12/06 02:28:17;;;;;;;4.47;2.35;;;4.70;99.90;;;;;;4985082;28;20045;-59
2022/12/06 02:30:55;;;;;;;5.65;2.15;;;4.40;99.90;;;;;;4984866;28;20053;-59
2022/12/06 02:33:43;;;;;;;5.75;2.30;;;4.50;99.90;;;;;;4984838;28;20529;-59
2022/12/06 02:36:17;;;;;;;7.55;2.15;;;4.70;99.90;;;;;;4983652;28;20105;-58
2022/12/06 02:38:51;;;;;;;3.95;2.20;;;4.60;99.90;;;;;;4983887;28;20050;-58
2022/12/06 02:41:55;;;;;;;7.07;2.42;;;4.80;99.90;;;;;;4985421;28;20129;-59
2022/12/06 02:44:28;;;;;;;4.75;2.13;;;4.30;99.90;;;;;;4982353;28;20413;-59
2022/12/06 02:46:56;;;;;;;5.57;1.95;;;4.60;99.90;;;;;;4984156;28;20575;-59
2022/12/06 02:49:25;;;;;;;3.55;1.80;;;4.70;99.90;;;;;;4985612;28;20429;-58
2022/12/06 02:51:53;;;;;;;5.22;2.03;;;4.60;99.90;;;;;;4983599;28;20104;-58
2022/12/06 02:54:21;;;;;;;4.35;1.95;;;4.30;99.90;;;;;;4984302;28;20521;-59
2022/12/06 02:56:46;;;;;;;6.45;2.60;;;4.90;99.90;;;;;;4982501;28;20125;-59
2022/12/06 02:59:12;;;;;;;7.38;3.38;;;4.70;99.90;;;;;;4983271;28;20720;-58
2022/12/06 03:01:43;;;;;;;8.40;3.85;;;4.30;99.90;;;;;;4984299;28;20048;-59
2022/12/06 03:04:08;;;;;;;10.25;4.85;;;4.60;99.90;;;;;;4985949;28;20049;-59
2022/12/06 03:06:39;;;;;;;11.65;5.45;;;4.90;99.90;;;;;;4992727;28;20465;-59
2022/12/06 03:09:11;;;;;;;11.63;5.05;;;4.80;99.90;;;;;;4984595;28;20050;-59
2022/12/06 03:11:57;;;;;;;9.25;4.75;;;4.30;99.90;;;;;;4985136;28;20461;-59
2022/12/06 03:14:33;;;;;;;9.65;4.13;;;4.50;99.90;;;;;;4983686;28;20093;-59
2022/12/06 03:17:08;;;;;;;9.25;3.95;;;4.60;99.90;;;;;;4983890;28;20108;-58
2022/12/06 03:19:37;;;;;;;7.03;3.60;;;4.50;99.90;;;;;;4983314;28;20050;-58
2022/12/06 03:22:07;;;;;;;11.75;3.72;;;5.00;99.90;;;;;;4984282;28;20684;-58
2022/12/06 03:24:37;;;;;;;11.15;4.03;;;4.30;99.90;;;;;;4984603;28;20150;-59
2022/12/06 03:27:08;;;;;;;8.55;3.85;;;4.40;99.90;;;;;;4983716;28;20164;-59
2022/12/06 03:29:39;;;;;;;8.70;4.00;;;4.60;99.90;;;;;;4984299;28;20122;-58
2022/12/06 03:32:07;;;;;;;9.18;3.72;;;4.30;99.90;;;;;;4983998;28;20417;-59
2022/12/06 03:34:39;;;;;;;11.38;3.95;;;4.90;99.90;;;;;;4983340;28;20760;-58
2022/12/06 03:37:08;;;;;;;10.20;3.58;;;4.60;99.90;;;;;;4983952;28;20462;-58
2022/12/06 03:39:45;;;;;;;9.00;3.70;;;4.20;99.90;;;;;;4984285;28;20043;-59
2022/12/06 03:42:11;;;;;;;11.80;4.00;;;4.20;99.90;;;;;;4983647;28;20121;-58
2022/12/06 03:44:37;;;;;;;9.98;4.10;;;4.50;99.90;;;;;;5001231;28;20727;-59
2022/12/06 03:47:14;;;;;;;9.73;4.28;;;4.30;99.90;;;;;;5002577;28;20104;-59
2022/12/06 03:49:45;;;;;;;9.60;3.88;;;4.20;99.90;;;;;;5003386;28;20104;-58
2022/12/06 03:52:11;;;;;;;8.98;3.67;;;4.20;99.90;;;;;;5003541;28;20056;-59
2022/12/06 03:54:38;;;;;;;12.27;4.07;;;4.50;99.90;;;;;;5003359;28;20491;-59
2022/12/06 03:57:04;;;;;;;7.25;3.45;;;4.70;99.90;;;;;;5002502;28;20041;-58
2022/12/06 03:59:30;;;;;;;9.05;3.47;;;4.40;99.90;;;;;;5003050;28;20060;-59
2022/12/06 04:01:55;;;;;;;12.15;3.63;;;4.30;99.90;;;;;;5002341;28;20100;-59
2022/12/06 04:04:21;;;;;;;9.48;3.10;;;4.40;99.90;;;;;;4998517;28;20045;-60
2022/12/06 04:06:47;;;;;;;12.23;3.00;;;4.70;99.90;;;;;;4990816;28;20134;-58
2022/12/06 04:11:57;;;;;;;3.80;1.83;;;4.40;99.90;;;;;;4983508;28;20133;-59
2022/12/06 04:14:31;;;;;;;3.95;1.60;;;4.70;99.90;;;;;;4981312;28;20129;-59
2022/12/06 04:19:42;;;;;;;4.15;1.40;;;4.50;99.90;;;;;;4982633;28;20577;-59
2022/12/06 04:24:52;;;;;;;2.92;1.00;;;4.40;99.90;;;;;;4983353;28;20055;-59
2022/12/06 04:40:59;;;;;;;2.00;0.70;;;4.50;99.90;;;;;;4983333;28;20057;-58
2022/12/06 04:43:40;;;;;;;2.50;0.90;;;4.10;99.90;;;;;;4981906;28;20046;-59
2022/12/06 04:46:07;;;;;;;6.47;0.70;;;4.40;99.90;;;;;;4981748;28;20042;-59
2022/12/06 04:48:32;;;;;;;3.97;0.80;;;4.20;99.90;;;;;;4982351;28;20402;-59
2022/12/06 04:50:58;;;;;;;2.03;0.77;;;4.60;99.90;;;;;;4982299;28;20219;-59
2022/12/06 04:53:24;;;;;;;3.83;1.20;;;4.50;99.90;;;;;;4982936;28;20046;-59
2022/12/06 04:55:50;;;;;;;3.05;1.40;;;4.30;99.90;;;;;;4983148;28;20065;-58
2022/12/06 04:58:16;;;;;;;5.00;1.50;;;4.40;99.90;;;;;;4981821;28;20508;-58
2022/12/06 05:00:42;;;;;;;4.05;1.13;;;4.20;99.90;;;;;;4982929;28;20049;-59
2022/12/06 05:03:12;;;;;;;2.97;1.30;;;4.40;99.90;;;;;;4982996;28;20078;-59
2022/12/06 05:05:38;;;;;;;2.47;0.98;;;4.80;99.90;;;;;;4992752;28;20042;-59
2022/12/06 05:08:04;;;;;;;2.22;0.93;;;4.80;99.90;;;;;;4982017;28;20502;-59
2022/12/06 05:10:30;;;;;;;3.92;1.08;;;4.10;99.90;;;;;;4983071;28;20108;-59
2022/12/06 05:12:55;;;;;;;2.70;1.00;;;4.30;99.90;;;;;;4982319;28;20050;-59
2022/12/06 05:15:21;;;;;;;5.18;1.42;;;4.20;99.90;;;;;;4982759;28;20074;-60
2022/12/06 05:17:47;;;;;;;4.65;1.35;;;4.50;99.90;;;;;;4982013;28;20054;-60
2022/12/06 05:20:15;;;;;;;2.78;1.10;;;4.30;99.90;;;;;;4982280;28;20046;-58
2022/12/06 05:22:41;;;;;;;6.47;1.38;;;4.30;99.90;;;;;;4981245;28;20858;-59
2022/12/06 05:25:07;;;;;;;3.40;1.20;;;4.60;99.90;;;;;;4981412;28;20248;-58
2022/12/06 05:27:33;;;;;;;3.10;1.30;;;4.20;99.90;;;;;;4983140;28;20046;-59
2022/12/06 05:29:58;;;;;;;4.13;1.30;;;4.40;99.90;;;;;;4982547;28;20116;-58
2022/12/06 05:32:24;;;;;;;4.43;1.50;;;4.70;99.90;;;;;;4982739;28;20320;-59
2022/12/06 05:34:50;;;;;;;3.28;1.33;;;4.20;99.90;;;;;;4981239;28;20042;-60
2022/12/06 05:37:16;;;;;;;3.58;1.42;;;4.40;99.90;;;;;;4982254;28;20136;-59
2022/12/06 05:39:41;;;;;;;4.18;1.70;;;4.60;99.90;;;;;;4983078;28;20038;-59
2022/12/06 05:42:07;;;;;;;5.38;1.88;;;4.30;99.90;;;;;;4982001;28;20045;-59
2022/12/06 05:44:33;;;;;;;4.75;1.83;;;4.30;99.90;;;;;;4981094;28;20046;-59
2022/12/06 05:46:59;;;;;;;5.70;2.65;;;4.60;99.90;;;;;;4982470;28;20038;-59
2022/12/06 05:49:25;;;;;;;6.68;2.55;;;4.20;99.90;;;;;;4982297;28;20382;-58
2022/12/06 05:51:51;;;;;;;7.85;3.20;;;4.80;99.90;;;;;;4980414;28;20096;-59
2022/12/06 05:54:17;;;;;;;9.75;3.35;;;4.50;99.90;;;;;;4982887;28;20038;-57
2022/12/06 05:56:42;;;;;;;7.20;2.80;;;4.20;99.90;;;;;;4982239;28;20046;-59
2022/12/06 05:59:08;;;;;;;8.68;3.17;;;4.30;99.90;;;;;;4982271;28;20050;-59
2022/12/06 06:01:33;;;;;;;9.75;2.95;;;4.40;99.90;;;;;;4981745;28;20056;-59
2022/12/06 06:04:00;;;;;;;9.55;3.50;;;4.50;99.90;;;;;;4982815;28;20108;-59
2022/12/06 06:06:26;;;;;;;11.25;3.85;;;4.30;99.90;;;;;;4991229;28;20135;-58
2022/12/06 06:08:51;;;;;;;8.68;2.97;;;5.30;99.90;;;;;;4985802;28;20486;-59
2022/12/06 06:11:17;;;;;;;11.50;3.47;;;4.40;99.90;;;;;;4985444;28;20409;-58
2022/12/06 06:13:43;;;;;;;8.73;3.28;;;4.30;99.90;;;;;;4985571;28;20050;-59
2022/12/06 06:16:08;;;;;;;11.38;3.53;;;4.10;99.90;;;;;;4985708;28;20661;-58
2022/12/06 06:18:34;;;;;;;13.38;3.85;;;4.20;99.90;;;;;;4985753;28;20053;-59
2022/12/06 06:21:00;;;;;;;10.57;4.55;;;4.40;99.90;;;;;;4983643;28;20056;-59
2022/12/06 06:23:27;;;;;;;18.27;7.82;;;4.10;99.90;;;;;;4985670;28;20050;-58
2022/12/06 06:25:53;;;;;;;13.63;7.93;;;4.30;99.90;;;;;;4985785;28;20043;-58
2022/12/06 06:28:20;;;;;;;15.98;8.95;;;3.90;99.90;;;;;;4983823;28;20125;-58
2022/12/06 06:30:46;;;;;;;12.18;6.53;;;3.90;99.90;;;;;;4984262;28;20082;-58
2022/12/06 06:33:12;;;;;;;10.77;5.13;;;3.90;99.90;;;;;;4985120;28;20054;-59
2022/12/06 06:35:38;;;;;;;9.70;4.70;;;3.90;99.90;;;;;;4984515;28;20050;-59
2022/12/06 06:38:04;;;;;;;10.88;5.85;;;4.10;99.90;;;;;;4984260;28;20042;-58
2022/12/06 06:40:30;;;;;;;11.25;5.30;;;4.00;99.90;;;;;;4985856;28;20497;-59
2022/12/06 06:42:56;;;;;;;8.57;4.15;;;3.80;99.90;;;;;;4984720;28;20081;-59
2022/12/06 06:45:23;;;;;;;6.90;3.75;;;3.90;99.90;;;;;;4984816;28;20697;-61
2022/12/06 06:47:49;;;;;;;8.50;3.10;;;3.90;99.90;;;;;;4985306;28;20042;-59
2022/12/06 06:50:16;;;;;;;8.25;3.78;;;4.20;99.90;;;;;;4984352;28;20034;-59
2022/12/06 06:52:41;;;;;;;6.15;4.05;;;4.00;99.90;;;;;;4984973;28;20050;-59
2022/12/06 06:55:08;;;;;;;6.07;3.35;;;3.90;99.90;;;;;;4984564;28;20041;-59
2022/12/06 06:57:35;;;;;;;10.15;3.83;;;3.50;99.90;;;;;;4984961;28;20597;-57
2022/12/06 07:00:03;;;;;;;8.05;3.65;;;3.70;99.90;;;;;;4985185;28;20049;-59
2022/12/06 07:02:28;;;;;;;8.57;3.50;;;3.70;99.90;;;;;;4993589;28;20467;-59
2022/12/06 07:04:54;;;;;;;6.50;3.83;;;3.50;99.90;;;;;;4996339;28;20050;-59
2022/12/06 07:07:19;;;;;;;7.68;3.70;;;3.50;99.90;;;;;;4990532;28;20049;-59
2022/12/06 07:09:45;;;;;;;7.50;4.28;;;3.50;99.90;;;;;;4984451;28;20509;-59
2022/12/06 07:12:12;;;;;;;7.20;3.60;;;3.50;99.90;;;;;;4985202;28;20042;-58
2022/12/06 07:14:38;;;;;;;8.02;3.63;;;3.40;99.90;;;;;;4983376;28;20054;-59
2022/12/06 07:17:03;;;;;;;9.38;3.75;;;3.50;99.90;;;;;;4984367;28;20047;-59
2022/12/06 07:19:29;;;;;;;9.30;3.63;;;3.60;99.90;;;;;;4983539;28;20061;-61
2022/12/06 07:21:54;;;;;;;7.55;3.60;;;3.40;99.90;;;;;;4982646;28;20464;-57
2022/12/06 07:24:20;;;;;;;6.00;3.55;;;3.50;99.90;;;;;;4983758;28;20493;-59
2022/12/06 07:26:46;;;;;;;7.28;4.00;;;3.30;99.90;;;;;;4984515;28;20477;-58
2022/12/06 07:29:11;;;;;;;7.70;4.30;;;3.70;99.90;;;;;;4984674;28;20057;-59
2022/12/06 07:31:39;;;;;;;6.68;4.25;;;3.50;99.90;;;;;;4983411;28;20042;-57
2022/12/06 07:34:05;;;;;;;8.05;4.18;;;3.30;99.90;;;;;;4984141;28;20046;-59
2022/12/06 07:36:31;;;;;;;8.50;4.28;;;3.60;99.90;;;;;;4982181;28;20100;-58
2022/12/06 07:38:59;;;;;;;9.13;4.30;;;3.10;99.90;;;;;;4984609;28;20128;-58
2022/12/06 07:46:57;;;;;;;6.90;3.88;;;3.40;99.90;;;;;;4984974;28;20050;-58
2022/12/06 07:49:23;;;;;;;9.93;4.38;;;3.20;99.90;;;;;;4982983;28;20715;-59
2022/12/06 07:51:49;;;;;;;8.90;4.55;;;2.80;99.90;;;;;;4983259;28;20098;-58
2022/12/06 07:54:15;;;;;;;9.80;4.68;;;2.70;99.90;;;;;;4983237;28;20466;-58
2022/12/06 07:56:41;;;;;;;7.35;4.38;;;2.70;99.90;;;;;;4983600;28;20042;-59
2022/12/06 07:59:07;;;;;;;10.27;4.90;;;2.90;99.90;;;;;;4983753;28;20049;-57
2022/12/06 08:01:33;;;;;;;10.00;4.80;;;2.50;99.90;;;;;;4983362;28;20035;-57
2022/12/06 08:04:00;;;;;;;11.75;5.03;;;2.50;99.90;;;;;;4985078;28;20555;-60
2022/12/06 08:06:27;;;;;;;10.20;5.13;;;2.50;99.90;;;;;;4984840;28;20077;-60
2022/12/06 08:08:53;;;;;;;8.52;5.05;;;2.70;99.90;;;;;;4984157;28;20525;-58
2022/12/06 08:11:21;;;;;;;9.18;4.85;;;2.40;99.90;;;;;;4983131;28;20566;-59
2022/12/06 08:13:47;;;;;;;9.52;4.80;;;2.40;99.90;;;;;;4983511;28;20050;-59
2022/12/06 08:16:12;;;;;;;9.43;4.85;;;2.50;99.90;;;;;;4983408;28;20050;-58
2022/12/06 08:18:39;;;;;;;10.93;4.88;;;2.40;99.90;;;;;;4983162;28;20062;-58
2022/12/06 08:21:06;;;;;;;10.35;5.30;;;3.10;99.90;;;;;;4981622;28;20046;-58
2022/12/06 08:23:32;;;;;;;8.43;5.55;;;3.00;99.90;;;;;;4983383;28;20444;-58
2022/12/06 08:26:06;;;;;;;9.27;5.28;;;2.30;99.90;;;;;;4983255;28;20042;-61
2022/12/06 08:28:34;;;;;;;9.73;4.88;;;2.30;99.90;;;;;;4982388;28;20038;-58
2022/12/06 08:31:07;;;;;;;10.32;5.85;;;2.50;99.90;;;;;;4983222;28;20046;-59
2022/12/06 08:33:33;;;;;;;10.95;6.43;;;2.60;99.90;;;;;;4983564;28;20509;-58
2022/12/06 08:35:59;;;;;;;11.23;5.82;;;2.70;99.90;;;;;;4981674;28;20381;-59
2022/12/06 08:38:25;;;;;;;11.40;6.30;;;3.10;99.90;;;;;;4981285;28;20053;-59
2022/12/06 08:40:50;;;;;;;11.20;6.40;;;2.60;99.90;;;;;;4982863;28;20058;-59
2022/12/06 08:43:16;;;;;;;13.77;7.82;;;2.80;99.90;;;;;;4981836;28;20142;-59
2022/12/06 08:45:42;;;;;;;12.70;7.00;;;3.20;99.90;;;;;;4982310;28;20525;-59
2022/12/06 08:48:08;;;;;;;11.85;5.93;;;3.50;99.90;;;;;;4982605;28;20109;-58
2022/12/06 08:50:33;;;;;;;10.25;6.43;;;3.00;99.90;;;;;;4982238;28;20073;-58
2022/12/06 08:52:59;;;;;;;9.70;5.45;;;3.20;99.90;;;;;;4982770;28;20501;-59
2022/12/06 08:55:25;;;;;;;10.65;6.00;;;3.40;99.90;;;;;;4981759;28;20125;-58
2022/12/06 08:57:50;;;;;;;9.55;5.53;;;3.30;99.90;;;;;;4982439;28;20043;-58
2022/12/06 09:00:16;;;;;;;9.60;5.45;;;3.70;99.90;;;;;;4981849;28;20042;-58
2022/12/06 09:02:42;;;;;;;8.73;5.32;;;3.60;99.90;;;;;;4981390;28;20045;-58
2022/12/06 09:05:08;;;;;;;9.20;5.47;;;3.60;99.90;;;;;;4986000;28;20139;-60
2022/12/06 09:07:33;;;;;;;7.90;5.00;;;3.70;99.90;;;;;;4985130;28;20070;-57
2022/12/06 09:09:59;;;;;;;8.95;4.80;;;3.80;99.90;;;;;;4982328;28;20069;-58
2022/12/06 09:12:25;;;;;;;8.63;4.95;;;3.80;99.90;;;;;;4981844;28;20525;-58
2022/12/06 09:14:51;;;;;;;9.70;6.13;;;3.60;99.90;;;;;;4981526;28;20051;-59
2022/12/06 09:17:17;;;;;;;8.30;5.22;;;3.90;99.90;;;;;;4982047;28;20561;-59
2022/12/06 09:19:42;;;;;;;9.15;5.47;;;4.00;99.90;;;;;;4981504;28;20501;-58
2022/12/06 09:22:08;;;;;;;10.82;5.32;;;3.90;99.90;;;;;;4980703;28;20556;-59
2022/12/06 09:24:34;;;;;;;8.77;5.40;;;4.20;99.90;;;;;;4982516;28;20047;-58
2022/12/06 09:26:59;;;;;;;9.40;5.13;;;4.20;99.90;;;;;;4981545;28;20050;-60
2022/12/06 09:29:25;;;;;;;8.77;5.72;;;4.40;99.90;;;;;;4982162;28;20050;-63
2022/12/06 09:31:52;;;;;;;6.65;5.05;;;5.20;99.90;;;;;;4981611;28;20473;-63
2022/12/06 09:34:18;;;;;;;8.50;4.43;;;6.00;99.90;;;;;;4979862;28;20104;-63
2022/12/06 09:36:50;;;;;;;6.82;4.50;;;7.00;99.90;;;;;;4982079;28;20134;-63
2022/12/06 09:39:31;;;;;;;6.50;4.15;;;6.80;99.90;;;;;;4982386;28;20410;-63
2022/12/06 09:42:00;;;;;;;7.57;3.85;;;7.50;99.90;;;;;;4984423;28;20448;-63
2022/12/06 09:44:51;;;;;;;5.38;2.92;;;7.50;99.90;;;;;;4984488;28;20390;-63
2022/12/06 09:47:39;;;;;;;6.07;3.08;;;8.00;99.90;;;;;;4985634;28;20082;-63
2022/12/06 09:50:23;;;;;;;6.47;3.00;;;8.50;99.90;;;;;;4984364;28;20057;-63
2022/12/06 09:53:03;;;;;;;5.13;2.72;;;9.10;99.90;;;;;;4985306;28;20233;-63
2022/12/06 09:55:44;;;;;;;4.80;2.78;;;9.40;99.90;;;;;;4967642;28;20053;-63
2022/12/06 09:58:18;;;;;;;4.35;2.83;;;9.70;99.90;;;;;;4986025;28;20046;-63
2022/12/06 10:00:48;;;;;;;3.80;2.60;;;10.00;99.90;;;;;;4983879;28;20129;-63
2022/12/06 10:03:32;;;;;;;5.05;2.40;;;10.40;99.90;;;;;;4985805;28;20424;-63
2022/12/06 10:06:04;;;;;;;4.32;2.95;;;10.40;99.90;;;;;;4993203;28;20069;-63
2022/12/06 10:09:11;;;;;;;5.55;2.50;;;11.10;99.90;;;;;;5004113;28;20045;-63
2022/12/06 10:11:52;;;;;;;5.30;2.25;;;11.20;99.90;;;;;;5003580;28;20065;-64
2022/12/06 10:14:46;;;;;;;5.32;2.55;;;10.80;99.90;;;;;;5004901;28;20046;-64
2022/12/06 10:17:32;;;;;;;5.40;2.58;;;9.80;99.90;;;;;;5004795;28;20080;-64
2022/12/06 10:20:16;;;;;;;5.20;2.20;;;9.70;99.90;;;;;;5004384;28;20455;-63
2022/12/06 10:23:19;;;;;;;5.32;2.10;;;9.90;99.90;;;;;;5005232;28;20461;-64
2022/12/06 10:26:13;;;;;;;3.58;2.00;;;9.90;99.90;;;;;;5004448;28;20108;-63
2022/12/06 10:28:44;;;;;;;3.20;2.10;;;10.20;99.90;;;;;;5003336;28;20077;-63
2022/12/06 10:31:26;;;;;;;6.15;2.10;;;9.90;99.90;;;;;;5002948;28;20054;-63
2022/12/06 10:34:24;;;;;;;4.22;2.10;;;10.80;99.90;;;;;;5004073;28;20046;-64
2022/12/06 10:37:30;;;;;;;4.45;2.28;;;10.90;99.90;;;;;;5002393;28;20054;-63
2022/12/06 10:40:13;;;;;;;3.40;2.22;;;11.10;99.90;;;;;;5004714;28;20112;-63
2022/12/06 10:42:43;;;;;;;4.47;2.35;;;10.90;99.90;;;;;;5004131;28;20477;-64
2022/12/06 10:48:42;;;;;;;4.32;2.08;;;9.50;99.90;;;;;;5004091;28;20053;-62
2022/12/06 10:51:18;;;;;;;4.90;2.30;;;9.20;99.90;;;;;;5001928;28;20116;-62
2022/12/06 10:53:50;;;;;;;5.10;2.30;;;8.50;99.90;;;;;;5004011;28;20456;-62
2022/12/06 10:56:27;;;;;;;4.65;2.20;;;8.60;99.90;;;;;;5004814;28;20729;-62
2022/12/06 10:59:03;;;;;;;5.40;1.98;;;8.10;99.90;;;;;;5004546;28;20045;-61
2022/12/06 11:01:36;;;;;;;5.90;2.30;;;7.80;99.90;;;;;;5003724;28;20062;-64
2022/12/06 11:04:09;;;;;;;4.03;1.75;;;7.40;99.90;;;;;;5000942;28;20050;-65
2022/12/06 11:06:44;;;;;;;3.17;1.83;;;7.60;99.90;;;;;;4994318;28;20089;-63
2022/12/06 11:09:31;;;;;;;3.60;1.85;;;7.50;99.90;;;;;;4984914;28;20637;-64
2022/12/06 11:11:57;;;;;;;6.20;1.83;;;7.80;99.90;;;;;;4984504;28;20086;-64
2022/12/06 11:14:37;;;;;;;3.97;1.70;;;8.00;99.90;;;;;;4984758;28;20069;-63
2022/12/06 11:17:23;;;;;;;5.63;1.80;;;7.60;99.90;;;;;;4982829;28;20058;-64
2022/12/06 11:20:09;;;;;;;6.07;2.13;;;7.60;99.90;;;;;;4983236;28;20046;-64
2022/12/06 11:23:05;;;;;;;5.50;2.13;;;7.70;99.90;;;;;;4984734;28;20046;-63
2022/12/06 11:25:35;;;;;;;4.78;1.98;;;7.60;99.90;;;;;;4966217;28;20092;-63
2022/12/06 11:28:15;;;;;;;6.45;2.10;;;7.40;99.90;;;;;;4984028;28;20042;-63
2022/12/06 11:30:40;;;;;;;4.63;2.00;;;7.40;99.90;;;;;;4984048;28;20100;-59
2022/12/06 11:33:08;;;;;;;4.45;1.95;;;8.20;99.90;;;;;;4983921;28;20053;-62
2022/12/06 11:35:35;;;;;;;6.03;2.30;;;8.60;99.90;;;;;;4983324;28;20074;-64
2022/12/06 11:38:05;;;;;;;3.90;1.80;;;8.90;99.90;;;;;;4984214;28;20676;-64
2022/12/06 11:40:42;;;;;;;5.38;1.90;;;9.80;99.90;;;;;;4981965;28;20081;-62
2022/12/06 11:43:15;;;;;;;5.78;1.88;;;9.40;99.90;;;;;;4983923;28;20105;-62
2022/12/06 11:45:44;;;;;;;5.85;2.50;;;9.70;99.90;;;;;;4984343;28;20109;-62
2022/12/06 11:48:18;;;;;;;6.47;3.42;;;9.30;99.90;;;;;;4982368;28;20042;-65
2022/12/06 11:50:46;;;;;;;5.53;2.70;;;9.20;99.90;;;;;;4983319;28;20069;-62
2022/12/06 11:53:36;;;;;;;7.03;3.15;;;9.10;99.90;;;;;;4983717;28;20045;-62
2022/12/06 11:56:23;;;;;;;5.47;2.60;;;8.90;99.90;;;;;;4984235;28;20046;-62
2022/12/06 11:59:08;;;;;;;5.75;2.50;;;9.30;99.90;;;;;;4983433;28;20039;-62
2022/12/06 12:02:01;;;;;;;4.63;1.90;;;9.70;99.90;;;;;;4982026;28;20104;-62
2022/12/06 12:04:40;;;;;;;3.17;1.80;;;9.80;99.90;;;;;;4984266;28;20589;-62
2022/12/06 12:07:08;;;;;;;5.00;2.10;;;9.40;99.90;;;;;;4996658;28;20044;-62
2022/12/06 12:09:58;;;;;;;3.92;2.03;;;9.20;99.90;;;;;;5000674;28;20046;-62
2022/12/06 12:15:20;;;;;;;2.80;1.60;;;9.50;99.90;;;;;;5002068;28;20119;-62
2022/12/06 12:17:50;;;;;;;4.97;1.80;;;9.10;99.90;;;;;;5001750;28;20065;-62
2022/12/06 12:20:36;;;;;;;3.80;2.08;;;8.80;99.90;;;;;;5001277;28;20129;-62
2022/12/06 12:23:14;;;;;;;3.33;1.77;;;9.10;99.90;;;;;;5002289;28;20049;-62
2022/12/06 12:25:43;;;;;;;6.93;2.03;;;8.90;99.90;;;;;;5000287;28;20062;-62
2022/12/06 12:28:27;;;;;;;3.97;1.92;;;8.50;99.90;;;;;;5003229;28;20041;-62
2022/12/06 12:30:58;;;;;;;3.85;2.03;;;8.40;99.90;;;;;;5000648;28;20060;-62
2022/12/06 12:33:28;;;;;;;3.83;2.47;;;8.30;99.90;;;;;;5002443;28;20049;-62
2022/12/06 12:36:02;;;;;;;5.00;2.33;;;8.20;99.90;;;;;;5001630;28;20049;-62
2022/12/06 12:38:28;;;;;;;5.97;2.45;;;8.00;99.90;;;;;;5001736;28;20090;-62
2022/12/06 12:41:01;;;;;;;4.63;2.60;;;8.00;99.90;;;;;;5002846;28;20137;-62
2022/12/06 12:43:30;;;;;;;5.55;2.53;;;8.00;99.90;;;;;;5002415;28;20096;-62
2022/12/06 12:46:16;;;;;;;3.70;2.08;;;7.90;99.90;;;;;;5000363;28;20046;-62
2022/12/06 12:48:44;;;;;;;4.47;2.08;;;8.00;99.90;;;;;;5002433;28;20524;-62
2022/12/06 12:51:35;;;;;;;6.13;2.10;;;7.70;99.90;;;;;;5000787;28;20393;-62
2022/12/06 12:54:05;;;;;;;5.95;1.98;;;7.60;99.90;;;;;;5001032;28;20057;-62
2022/12/06 12:56:36;;;;;;;4.20;2.05;;;7.60;99.90;;;;;;5002449;28;20126;-62
2022/12/06 12:59:14;;;;;;;3.58;1.98;;;7.40;99.90;;;;;;5000988;28;20045;-62
2022/12/06 13:02:01;;;;;;;4.30;2.33;;;7.40;99.90;;;;;;5002450;28;20042;-62
2022/12/06 13:04:36;;;;;;;5.85;2.13;;;7.50;99.90;;;;;;4989329;28;20484;-63
2022/12/06 13:07:19;;;;;;;4.55;2.15;;;7.50;99.90;;;;;;4993966;28;20049;-62
2022/12/06 13:09:50;;;;;;;3.20;2.00;;;7.50;99.90;;;;;;5000792;28;20053;-63
2022/12/06 13:12:38;;;;;;;6.55;2.10;;;7.30;99.90;;;;;;4982181;28;20156;-62
2022/12/06 13:15:10;;;;;;;4.95;1.90;;;7.00;99.90;;;;;;4981373;28;20058;-61
2022/12/06 13:17:37;;;;;;;4.40;2.03;;;7.00;99.90;;;;;;4986061;28;20054;-62
2022/12/06 13:20:21;;;;;;;6.20;2.47;;;6.90;99.90;;;;;;4989285;28;20124;-62
2022/12/06 13:22:50;;;;;;;5.32;2.95;;;6.80;99.90;;;;;;4984467;28;20129;-62
2022/12/06 13:25:15;;;;;;;5.03;2.80;;;6.80;99.90;;;;;;4985782;28;20460;-62
2022/12/06 13:27:44;;;;;;;6.70;2.28;;;6.70;99.90;;;;;;4986398;28;20042;-62
2022/12/06 13:30:11;;;;;;;5.60;2.17;;;6.70;99.90;;;;;;4993251;28;20545;-62
2022/12/06 13:32:57;;;;;;;4.03;2.20;;;6.80;99.90;;;;;;5004141;28;20054;-62
2022/12/06 13:35:37;;;;;;;4.25;2.50;;;6.80;99.90;;;;;;5003984;28;20056;-62
2022/12/06 13:38:22;;;;;;;4.40;2.40;;;6.60;99.90;;;;;;4985972;28;20105;-62
2022/12/06 13:40:50;;;;;;;6.75;2.80;;;6.80;99.90;;;;;;4985011;28;20704;-62
2022/12/06 13:43:25;;;;;;;5.35;2.70;;;6.60;99.90;;;;;;4985680;28;20117;-62
2022/12/06 13:45:52;;;;;;;5.85;2.45;;;6.60;99.90;;;;;;4987197;28;20082;-62
2022/12/06 13:48:24;;;;;;;5.03;2.55;;;6.60;99.90;;;;;;5004523;28;20057;-62